Time;durP1;ratioP1;P1;durP2;ratioP2;P2;SDS_P1;SDS_P2;PMS_P1;PMS_P2;Temp;Humidity;BMP_temperature;BMP_pressure;BME280_temperature;BME280_humidity;BME280_pressure;Samples;Min_cycle;Max_cycle;Signal;HPM_P1;HPM_P2
2023/03/01 00:02:18;;;;;;;21.97;12.30;;;-1.10;1.00;;;;;;5101744;28;20420;-64
2023/03/01 00:04:45;;;;;;;15.98;12.43;;;-0.90;1.00;;;;;;5100369;28;20455;-64
2023/03/01 00:07:11;;;;;;;16.88;12.27;;;-0.90;1.00;;;;;;5099047;28;20414;-65
2023/03/01 00:09:39;;;;;;;16.55;12.13;;;-1.10;1.00;;;;;;5101096;28;20416;-64
2023/03/01 00:12:07;;;;;;;16.08;11.90;;;-1.20;1.00;;;;;;5101331;28;20415;-65
2023/03/01 00:14:33;;;;;;;15.07;12.20;;;-1.20;1.00;;;;;;5095285;28;20851;-65
2023/03/01 00:17:00;;;;;;;17.20;12.27;;;-1.20;1.00;;;;;;5100120;28;20410;-64
2023/03/01 00:19:28;;;;;;;15.90;12.75;;;-1.20;1.00;;;;;;5101522;28;20404;-64
2023/03/01 00:21:55;;;;;;;18.00;12.47;;;-1.20;1.00;;;;;;5098516;28;20500;-65
2023/03/01 00:24:22;;;;;;;16.58;12.52;;;-1.20;1.00;;;;;;5099144;28;20405;-64
2023/03/01 00:26:49;;;;;;;16.15;12.55;;;-1.30;1.00;;;;;;5096610;28;20417;-64
2023/03/01 00:29:16;;;;;;;15.07;12.52;;;-1.30;1.00;;;;;;5099498;28;20449;-64
2023/03/01 00:31:42;;;;;;;16.45;12.50;;;-1.30;1.00;;;;;;5101528;28;20461;-64
2023/03/01 00:34:10;;;;;;;16.27;12.48;;;-1.20;1.00;;;;;;5100087;28;20463;-63
2023/03/01 00:36:38;;;;;;;18.00;13.07;;;-1.30;1.00;;;;;;5098767;28;20414;-64
2023/03/01 00:39:08;;;;;;;17.38;12.23;;;-1.30;1.00;;;;;;5100661;28;20412;-65
2023/03/01 00:41:35;;;;;;;14.77;11.90;;;-1.30;1.00;;;;;;5101198;28;20408;-65
2023/03/01 00:44:01;;;;;;;17.13;12.70;;;-1.30;1.00;;;;;;5095994;28;20509;-64
2023/03/01 00:46:29;;;;;;;18.20;12.63;;;-1.40;1.00;;;;;;5097271;28;20421;-64
2023/03/01 00:48:56;;;;;;;16.83;12.23;;;-1.30;1.00;;;;;;5100621;28;20414;-64
2023/03/01 00:51:26;;;;;;;19.40;12.90;;;-1.40;1.00;;;;;;5099404;28;20412;-65
2023/03/01 00:53:56;;;;;;;15.77;12.57;;;-1.40;1.00;;;;;;5102260;28;20421;-64
2023/03/01 00:56:23;;;;;;;18.00;12.98;;;-1.40;1.00;;;;;;5103550;28;20427;-65
2023/03/01 00:58:50;;;;;;;15.77;12.60;;;-1.50;1.00;;;;;;5105069;28;20408;-64
2023/03/01 01:01:19;;;;;;;17.05;12.93;;;-1.50;1.00;;;;;;5102771;28;20793;-65
2023/03/01 01:03:47;;;;;;;15.70;12.40;;;-1.40;1.00;;;;;;5102468;28;20482;-65
2023/03/01 01:06:16;;;;;;;17.77;13.43;;;-1.40;1.00;;;;;;5098944;28;20402;-64
2023/03/01 01:08:43;;;;;;;16.13;12.85;;;-1.40;1.00;;;;;;5103061;28;20414;-64
2023/03/01 01:11:11;;;;;;;19.05;14.02;;;-1.50;1.00;;;;;;5105036;28;20728;-64
2023/03/01 01:13:38;;;;;;;16.85;13.00;;;-1.60;1.00;;;;;;5103702;28;20472;-64
2023/03/01 01:16:06;;;;;;;18.17;12.45;;;-1.60;1.00;;;;;;5101190;28;20517;-63
2023/03/01 01:18:33;;;;;;;18.05;12.32;;;-1.50;1.00;;;;;;5102889;28;20884;-64
2023/03/01 01:21:05;;;;;;;16.87;12.87;;;-1.60;1.00;;;;;;5105679;28;20412;-64
2023/03/01 01:23:32;;;;;;;17.40;13.13;;;-1.60;1.00;;;;;;5098050;28;20447;-64
2023/03/01 01:26:03;;;;;;;18.23;12.75;;;-1.60;1.00;;;;;;5103898;28;20453;-64
2023/03/01 01:28:32;;;;;;;15.75;13.00;;;-1.50;1.00;;;;;;5099336;28;20432;-64
2023/03/01 01:30:59;;;;;;;17.63;13.07;;;-1.60;1.00;;;;;;5101610;28;20414;-64
2023/03/01 01:33:25;;;;;;;16.35;13.40;;;-1.70;1.00;;;;;;5103825;28;20408;-64
2023/03/01 01:35:52;;;;;;;16.35;12.93;;;-1.80;1.00;;;;;;5103474;28;20817;-64
2023/03/01 01:38:19;;;;;;;17.25;13.45;;;-1.80;1.00;;;;;;5101312;28;20479;-64
2023/03/01 01:40:46;;;;;;;18.75;13.80;;;-1.80;1.00;;;;;;5103074;28;20755;-64
2023/03/01 01:43:20;;;;;;;17.85;13.68;;;-1.90;1.00;;;;;;5103892;28;20404;-64
2023/03/01 01:45:49;;;;;;;19.20;13.60;;;-2.00;1.00;;;;;;5102585;28;20414;-64
2023/03/01 01:48:21;;;;;;;21.37;13.73;;;-2.00;1.00;;;;;;5101006;28;20417;-65
2023/03/01 01:50:54;;;;;;;18.98;14.10;;;-2.00;1.00;;;;;;5102242;28;20412;-64
2023/03/01 01:53:22;;;;;;;18.35;14.50;;;-2.00;1.00;;;;;;5097806;28;20461;-64
2023/03/01 01:55:52;;;;;;;18.10;14.27;;;-2.10;1.00;;;;;;5103024;28;20423;-64
2023/03/01 01:58:21;;;;;;;19.02;14.55;;;-2.10;1.00;;;;;;5100035;28;20405;-64
2023/03/01 02:00:49;;;;;;;19.13;13.93;;;-2.20;1.00;;;;;;5101882;28;20417;-64
2023/03/01 02:03:20;;;;;;;17.15;13.73;;;-2.20;1.00;;;;;;5103380;28;20404;-65
2023/03/01 02:05:51;;;;;;;19.80;14.23;;;-2.20;1.00;;;;;;5102972;28;20408;-65
2023/03/01 02:08:21;;;;;;;18.50;14.13;;;-2.20;1.00;;;;;;5097294;28;20435;-64
2023/03/01 02:10:50;;;;;;;17.85;12.88;;;-2.10;1.00;;;;;;5101368;28;20413;-64
2023/03/01 02:13:16;;;;;;;15.88;13.10;;;-2.00;1.00;;;;;;5097270;28;20410;-64
2023/03/01 02:15:44;;;;;;;18.25;13.73;;;-1.90;1.00;;;;;;5101880;28;20471;-65
2023/03/01 02:18:16;;;;;;;20.37;13.23;;;-2.10;1.00;;;;;;5103050;28;20444;-64
2023/03/01 02:20:55;;;;;;;17.08;12.98;;;-2.10;1.00;;;;;;5103214;28;20483;-64
2023/03/01 02:23:23;;;;;;;17.40;13.68;;;-1.90;1.00;;;;;;5098828;28;20408;-64
2023/03/01 02:25:57;;;;;;;17.77;13.68;;;-2.10;1.00;;;;;;5099906;28;20405;-64
2023/03/01 02:28:31;;;;;;;21.85;13.88;;;-2.20;1.00;;;;;;5101928;28;20956;-65
2023/03/01 02:33:43;;;;;;;18.30;13.63;;;-2.20;1.00;;;;;;5097598;28;20607;-64
2023/03/01 02:36:14;;;;;;;19.50;14.27;;;-2.30;1.00;;;;;;5102323;28;20554;-64
2023/03/01 02:38:41;;;;;;;16.00;13.40;;;-2.30;1.00;;;;;;5099755;28;20435;-64
2023/03/01 02:41:09;;;;;;;19.37;13.37;;;-2.30;1.00;;;;;;5103075;28;20408;-65
2023/03/01 02:43:37;;;;;;;20.73;13.23;;;-2.20;1.00;;;;;;5099708;28;20914;-65
2023/03/01 02:46:09;;;;;;;19.73;13.57;;;-2.10;1.00;;;;;;5095860;28;20421;-64
2023/03/01 02:48:42;;;;;;;16.35;13.07;;;-2.10;1.00;;;;;;5102249;28;20414;-65
2023/03/01 02:51:16;;;;;;;17.60;13.30;;;-1.90;1.00;;;;;;5101390;28;20416;-65
2023/03/01 02:53:51;;;;;;;17.23;13.18;;;-1.80;1.00;;;;;;5096947;28;20414;-65
2023/03/01 02:56:18;;;;;;;16.65;13.27;;;-1.80;1.00;;;;;;5102291;28;20423;-64
2023/03/01 02:58:50;;;;;;;20.00;14.18;;;-2.10;1.00;;;;;;5103055;28;20412;-64
2023/03/01 03:01:17;;;;;;;18.38;14.13;;;-2.20;1.00;;;;;;5103132;28;20423;-64
2023/03/01 03:03:44;;;;;;;20.80;14.13;;;-2.30;1.00;;;;;;5099451;28;20836;-64
2023/03/01 03:06:10;;;;;;;17.67;14.13;;;-2.40;1.00;;;;;;5102583;28;20408;-64
2023/03/01 03:08:37;;;;;;;18.02;14.35;;;-2.50;1.00;;;;;;5100266;28;20455;-64
2023/03/01 03:11:04;;;;;;;19.20;14.20;;;-2.50;3.30;;;;;;5100452;28;20435;-64
2023/03/01 03:13:32;;;;;;;22.25;14.27;;;-2.50;9.00;;;;;;5102483;28;20408;-64
2023/03/01 03:16:00;;;;;;;17.90;14.03;;;-2.50;13.20;;;;;;5101142;28;20425;-65
2023/03/01 03:18:26;;;;;;;17.43;14.27;;;-2.50;15.60;;;;;;5099852;28;20410;-65
2023/03/01 03:20:55;;;;;;;20.42;14.35;;;-2.60;18.90;;;;;;5102491;28;20858;-64
2023/03/01 03:23:22;;;;;;;18.88;14.77;;;-2.50;19.60;;;;;;5100158;28;20911;-64
2023/03/01 03:25:50;;;;;;;18.00;14.30;;;-2.50;17.50;;;;;;5099737;28;20965;-65
2023/03/01 03:28:17;;;;;;;21.08;15.07;;;-2.60;20.80;;;;;;5100041;28;20406;-65
2023/03/01 03:30:44;;;;;;;20.48;14.65;;;-2.60;22.10;;;;;;5101744;28;20457;-65
2023/03/01 03:33:13;;;;;;;18.87;14.93;;;-2.60;21.30;;;;;;5100668;28;20517;-65
2023/03/01 03:35:41;;;;;;;20.00;14.85;;;-2.60;19.70;;;;;;5099270;28;20907;-65
2023/03/01 03:38:15;;;;;;;23.08;14.88;;;-2.70;21.80;;;;;;5100720;28;20809;-65
2023/03/01 03:40:44;;;;;;;19.90;14.93;;;-2.70;24.30;;;;;;5102294;28;20453;-64
2023/03/01 03:43:13;;;;;;;20.45;15.02;;;-2.70;28.60;;;;;;5098457;28;20410;-65
2023/03/01 03:45:40;;;;;;;22.83;15.45;;;-2.70;27.60;;;;;;5099120;28;20432;-64
2023/03/01 03:48:09;;;;;;;19.75;15.30;;;-2.80;28.00;;;;;;5100711;28;20460;-65
2023/03/01 03:50:37;;;;;;;22.80;16.00;;;-2.70;30.10;;;;;;5101958;28;20408;-65
2023/03/01 03:53:07;;;;;;;20.90;15.98;;;-2.70;29.30;;;;;;5099869;28;20558;-64
2023/03/01 03:55:34;;;;;;;20.95;15.00;;;-2.70;30.00;;;;;;5099286;28;20429;-65
2023/03/01 03:58:06;;;;;;;19.75;14.88;;;-2.60;30.80;;;;;;5101237;28;20411;-64
2023/03/01 04:00:34;;;;;;;20.83;15.38;;;-2.40;28.40;;;;;;5098044;28;20425;-65
2023/03/01 04:03:01;;;;;;;19.30;15.70;;;-2.60;22.80;;;;;;5101032;28;20840;-64
2023/03/01 04:05:28;;;;;;;19.90;14.95;;;-2.80;26.30;;;;;;5101212;28;20412;-65
2023/03/01 04:08:01;;;;;;;20.10;14.90;;;-2.80;29.60;;;;;;5095345;28;20758;-64
2023/03/01 04:10:29;;;;;;;21.23;15.45;;;-2.80;32.80;;;;;;5099139;28;20979;-65
2023/03/01 04:12:56;;;;;;;19.38;14.20;;;-2.80;35.60;;;;;;5098306;28;20805;-65
2023/03/01 04:15:24;;;;;;;20.00;15.15;;;-2.60;33.50;;;;;;5100816;28;20412;-65
2023/03/01 04:17:52;;;;;;;20.35;14.77;;;-2.70;27.90;;;;;;5098791;28;20418;-64
2023/03/01 04:20:24;;;;;;;20.90;13.93;;;-2.70;28.90;;;;;;5102269;28;20416;-64
2023/03/01 04:22:52;;;;;;;19.60;15.73;;;-2.50;26.70;;;;;;5102812;28;20788;-64
2023/03/01 04:25:20;;;;;;;22.20;14.85;;;-2.70;22.10;;;;;;5103867;28;20987;-64
2023/03/01 04:27:46;;;;;;;20.33;14.90;;;-2.80;25.60;;;;;;5105120;28;20911;-65
2023/03/01 04:30:13;;;;;;;18.23;13.70;;;-2.80;28.70;;;;;;5103555;28;20887;-65
2023/03/01 04:32:40;;;;;;;17.65;13.60;;;-2.70;29.10;;;;;;5102720;28;20892;-64
2023/03/01 04:35:08;;;;;;;20.20;14.82;;;-2.50;24.90;;;;;;5099220;28;20474;-65
2023/03/01 04:37:35;;;;;;;20.65;15.35;;;-2.70;19.60;;;;;;5103542;28;20884;-65
2023/03/01 04:40:12;;;;;;;21.27;15.33;;;-2.80;22.10;;;;;;5105311;28;20568;-64
2023/03/01 04:42:40;;;;;;;20.42;15.35;;;-2.90;26.90;;;;;;5105242;28;20408;-65
2023/03/01 04:45:12;;;;;;;19.93;15.07;;;-3.00;34.20;;;;;;5099651;28;20398;-65
2023/03/01 04:47:40;;;;;;;23.05;16.02;;;-3.00;39.90;;;;;;5102492;28;20412;-65
2023/03/01 04:50:08;;;;;;;22.95;15.60;;;-3.10;44.00;;;;;;5106315;28;20461;-65
2023/03/01 04:52:35;;;;;;;20.43;16.20;;;-3.00;45.80;;;;;;5102656;28;20417;-65
2023/03/01 04:55:02;;;;;;;21.35;15.75;;;-3.00;45.60;;;;;;5104915;28;20458;-64
2023/03/01 04:57:28;;;;;;;22.75;16.67;;;-3.00;45.80;;;;;;5103356;28;20422;-65
2023/03/01 04:59:56;;;;;;;20.23;15.55;;;-3.00;46.30;;;;;;5102266;28;20418;-65
2023/03/01 05:02:23;;;;;;;20.23;16.00;;;-3.10;44.40;;;;;;5104975;28;20481;-64
2023/03/01 05:04:50;;;;;;;25.03;16.27;;;-3.10;45.50;;;;;;5105757;28;20490;-64
2023/03/01 05:07:19;;;;;;;24.88;16.23;;;-3.10;47.50;;;;;;5102490;28;20405;-64
2023/03/01 05:09:46;;;;;;;22.13;16.27;;;-3.10;49.30;;;;;;5102738;28;20816;-64
2023/03/01 05:12:13;;;;;;;23.17;16.30;;;-3.20;50.60;;;;;;5099574;28;21195;-65
2023/03/01 05:14:40;;;;;;;20.73;15.77;;;-3.20;54.10;;;;;;5103589;28;20427;-65
2023/03/01 05:17:08;;;;;;;23.05;16.40;;;-3.20;56.70;;;;;;5104280;28;20445;-65
2023/03/01 05:19:35;;;;;;;22.42;16.65;;;-3.20;56.70;;;;;;5102482;28;20723;-63
2023/03/01 05:22:03;;;;;;;22.48;16.25;;;-3.20;56.00;;;;;;5103942;28;20408;-63
2023/03/01 05:24:31;;;;;;;24.48;16.20;;;-3.20;55.90;;;;;;5096663;28;20403;-63
2023/03/01 05:26:58;;;;;;;23.10;16.55;;;-3.20;56.30;;;;;;5103485;28;20404;-63
2023/03/01 05:29:27;;;;;;;21.60;15.50;;;-3.20;55.50;;;;;;5101558;28;20405;-63
2023/03/01 05:31:54;;;;;;;20.25;15.68;;;-3.20;56.10;;;;;;5103020;28;20412;-63
2023/03/01 05:34:25;;;;;;;21.08;14.82;;;-3.10;57.90;;;;;;5104133;28;20853;-63
2023/03/01 05:36:52;;;;;;;22.65;14.88;;;-3.00;52.60;;;;;;5103128;28;21014;-62
2023/03/01 05:39:21;;;;;;;21.98;15.30;;;-2.80;47.50;;;;;;5100702;28;20476;-63
2023/03/01 05:41:47;;;;;;;22.60;16.38;;;-2.90;39.40;;;;;;5101353;28;20460;-63
2023/03/01 05:44:14;;;;;;;24.08;16.55;;;-3.10;36.00;;;;;;5099279;28;20417;-63
2023/03/01 05:46:41;;;;;;;22.77;16.05;;;-3.10;41.50;;;;;;5111628;28;20402;-63
2023/03/01 05:49:08;;;;;;;21.17;16.52;;;-3.20;46.80;;;;;;5111016;28;20405;-63
2023/03/01 05:51:36;;;;;;;22.30;16.70;;;-3.20;52.20;;;;;;5110630;28;20412;-63
2023/03/01 05:54:04;;;;;;;22.80;15.82;;;-3.20;55.50;;;;;;5101974;28;20471;-62
2023/03/01 05:56:33;;;;;;;21.65;15.95;;;-3.20;55.60;;;;;;5101250;28;20460;-63
2023/03/01 05:59:00;;;;;;;21.75;16.02;;;-3.20;56.10;;;;;;5103003;28;20408;-63
2023/03/01 06:01:27;;;;;;;22.98;16.27;;;-3.10;54.20;;;;;;5101715;28;20471;-63
2023/03/01 06:03:54;;;;;;;20.40;16.03;;;-3.10;48.90;;;;;;5096938;28;20761;-63
2023/03/01 06:06:20;;;;;;;22.08;17.05;;;-3.20;48.10;;;;;;5098656;28;20498;-63
2023/03/01 06:08:48;;;;;;;22.83;16.52;;;-3.30;52.70;;;;;;5100347;28;20467;-63
2023/03/01 06:11:15;;;;;;;22.88;17.15;;;-3.30;60.20;;;;;;5102648;28;20457;-62
2023/03/01 06:13:42;;;;;;;22.58;16.73;;;-3.30;62.20;;;;;;5099082;28;20463;-62
2023/03/01 06:16:10;;;;;;;22.60;16.30;;;-3.30;63.80;;;;;;5102240;28;20420;-66
2023/03/01 06:18:37;;;;;;;21.98;16.98;;;-3.30;65.00;;;;;;5099337;28;20781;-59
2023/03/01 06:21:04;;;;;;;21.73;16.42;;;-3.30;67.20;;;;;;5101887;28;20410;-62
2023/03/01 06:23:31;;;;;;;22.80;16.45;;;-3.20;67.30;;;;;;5102263;28;20825;-64
2023/03/01 06:25:59;;;;;;;22.60;16.17;;;-3.10;65.90;;;;;;5102638;28;20521;-65
2023/03/01 06:28:26;;;;;;;25.20;17.27;;;-3.20;63.60;;;;;;5097173;28;20900;-64
2023/03/01 06:30:53;;;;;;;22.08;15.40;;;-3.20;63.50;;;;;;5100731;28;20418;-64
2023/03/01 06:33:21;;;;;;;26.27;16.83;;;-3.10;59.60;;;;;;5099222;28;20838;-65
2023/03/01 06:35:48;;;;;;;25.55;17.88;;;-3.20;58.20;;;;;;5100652;28;20445;-65
2023/03/01 06:38:17;;;;;;;25.92;17.88;;;-3.20;61.00;;;;;;5102786;28;20408;-65
2023/03/01 06:40:43;;;;;;;23.60;17.40;;;-3.20;66.20;;;;;;5099122;28;20515;-63
2023/03/01 06:43:12;;;;;;;22.70;17.75;;;-3.10;61.00;;;;;;5101731;28;20404;-63
2023/03/01 06:45:39;;;;;;;23.92;16.88;;;-3.20;59.60;;;;;;5096883;28;20410;-64
2023/03/01 06:48:06;;;;;;;24.17;16.88;;;-3.10;61.90;;;;;;5102979;28;20415;-63
2023/03/01 06:50:33;;;;;;;21.67;17.52;;;-3.10;62.40;;;;;;5102294;28;20484;-62
2023/03/01 06:53:00;;;;;;;22.70;17.08;;;-3.10;58.90;;;;;;5097989;28;20414;-61
2023/03/01 06:55:27;;;;;;;23.25;17.15;;;-3.00;56.90;;;;;;5099804;28;20416;-62
2023/03/01 06:57:56;;;;;;;23.77;17.00;;;-2.90;57.30;;;;;;5096751;28;20433;-62
2023/03/01 07:00:25;;;;;;;23.17;17.65;;;-2.90;52.00;;;;;;5101901;28;20487;-61
2023/03/01 07:02:52;;;;;;;23.92;17.45;;;-2.90;48.60;;;;;;5098493;28;20922;-62
2023/03/01 07:05:19;;;;;;;23.83;17.83;;;-2.80;51.20;;;;;;5103913;28;20412;-64
2023/03/01 07:07:45;;;;;;;69.47;20.85;;;-2.80;48.80;;;;;;5099597;28;20572;-65
2023/03/01 07:10:13;;;;;;;41.60;19.23;;;-2.50;49.50;;;;;;5101305;28;20412;-60
2023/03/01 07:12:41;;;;;;;24.63;17.88;;;-2.50;43.80;;;;;;5098837;28;20758;-61
2023/03/01 07:15:10;;;;;;;21.57;16.93;;;-2.60;32.40;;;;;;5099288;28;20456;-62
2023/03/01 07:17:38;;;;;;;26.38;18.17;;;-2.70;31.10;;;;;;5103569;28;20424;-64
2023/03/01 07:20:05;;;;;;;22.98;16.65;;;-2.60;34.10;;;;;;5096095;28;20406;-64
2023/03/01 07:22:32;;;;;;;26.88;17.80;;;-2.50;35.00;;;;;;5089146;28;20414;-65
2023/03/01 07:24:59;;;;;;;24.02;17.30;;;-2.40;31.70;;;;;;5094242;28;20924;-65
2023/03/01 07:27:25;;;;;;;22.40;17.25;;;-2.20;28.20;;;;;;5101078;28;20485;-66
2023/03/01 07:29:52;;;;;;;24.40;17.17;;;-2.20;19.60;;;;;;5097937;28;20502;-61
2023/03/01 07:32:19;;;;;;;22.55;16.88;;;-2.20;15.70;;;;;;5101617;28;20408;-62
2023/03/01 07:34:47;;;;;;;23.33;16.40;;;-2.20;19.10;;;;;;5100852;28;20887;-62
2023/03/01 07:37:14;;;;;;;23.25;16.75;;;-2.10;15.80;;;;;;5098273;28;20426;-64
2023/03/01 07:39:41;;;;;;;25.33;15.90;;;-2.00;9.70;;;;;;5101928;28;20410;-63
2023/03/01 07:42:08;;;;;;;23.48;16.25;;;-1.90;1.00;;;;;;5099495;28;20923;-64
2023/03/01 07:44:35;;;;;;;22.60;15.35;;;-2.00;1.00;;;;;;5097185;28;20414;-67
2023/03/01 07:47:02;;;;;;;21.50;16.23;;;-1.90;1.00;;;;;;5092526;28;20487;-64
2023/03/01 07:49:28;;;;;;;23.02;15.57;;;-1.80;1.00;;;;;;5102035;28;20420;-65
2023/03/01 07:51:56;;;;;;;21.17;15.25;;;-1.70;1.00;;;;;;5096019;28;20414;-66
2023/03/01 07:54:23;;;;;;;21.05;14.32;;;-1.60;1.00;;;;;;5098100;28;20409;-65
2023/03/01 07:56:50;;;;;;;20.92;13.95;;;-1.60;1.00;;;;;;5104697;28;20486;-64
2023/03/01 07:59:16;;;;;;;23.50;16.02;;;-1.50;1.00;;;;;;5103087;28;20411;-65
2023/03/01 08:01:43;;;;;;;20.58;15.95;;;-1.50;1.00;;;;;;5101224;28;20406;-66
2023/03/01 08:04:10;;;;;;;20.27;14.75;;;-1.40;1.00;;;;;;5096713;28;20414;-66
2023/03/01 08:06:37;;;;;;;20.02;15.35;;;-1.20;1.00;;;;;;5102657;28;20819;-66
2023/03/01 08:09:05;;;;;;;18.63;14.27;;;-1.20;1.00;;;;;;5102332;28;20417;-66
2023/03/01 08:11:32;;;;;;;21.65;14.30;;;-1.10;1.00;;;;;;5106911;28;20415;-65
2023/03/01 08:13:58;;;;;;;20.05;14.77;;;-1.00;1.00;;;;;;5102614;28;20417;-65
2023/03/01 08:16:25;;;;;;;25.98;18.25;;;-1.00;1.00;;;;;;5099814;28;20418;-66
2023/03/01 08:18:52;;;;;;;19.55;14.50;;;-0.90;1.00;;;;;;5095406;28;20925;-65
2023/03/01 08:21:19;;;;;;;22.90;14.80;;;-0.70;1.00;;;;;;5104439;28;20548;-65
2023/03/01 08:23:45;;;;;;;19.63;14.25;;;-0.60;1.00;;;;;;5096977;28;20416;-66
2023/03/01 08:26:16;;;;;;;20.02;13.63;;;-0.50;1.00;;;;;;5102382;28;20406;-66
2023/03/01 08:28:44;;;;;;;19.10;13.88;;;-0.30;99.90;;;;;;5106619;28;20408;-64
2023/03/01 08:31:19;;;;;;;18.10;12.95;;;-0.20;99.90;;;;;;5102213;28;20416;-65
2023/03/01 08:33:50;;;;;;;18.33;12.45;;;-0.10;99.90;;;;;;5106069;28;20407;-64
2023/03/01 08:36:17;;;;;;;17.05;12.52;;;0.00;99.90;;;;;;5107295;28;20871;-63
2023/03/01 08:38:44;;;;;;;15.65;11.25;;;0.10;99.90;;;;;;5104596;28;20500;-64
2023/03/01 08:41:11;;;;;;;14.98;11.95;;;0.10;1.00;;;;;;5098568;28;20437;-63
2023/03/01 08:43:39;;;;;;;16.52;12.43;;;0.30;1.00;;;;;;5102779;28;20822;-63
2023/03/01 08:46:06;;;;;;;15.85;11.27;;;0.40;1.00;;;;;;5101342;28;20424;-70
2023/03/01 08:48:32;;;;;;;18.13;12.73;;;0.60;99.90;;;;;;5109767;28;20899;-61
2023/03/01 08:51:08;;;;;;;16.38;11.80;;;0.70;99.90;;;;;;5098419;28;20410;-62
2023/03/01 08:53:34;;;;;;;15.18;11.55;;;0.80;1.00;;;;;;5095813;28;20409;-64
2023/03/01 08:56:02;;;;;;;15.10;11.50;;;0.90;34.30;;;;;;5102200;28;20463;-63
2023/03/01 08:58:29;;;;;;;18.27;11.97;;;0.90;99.90;;;;;;5098948;28;20430;-67
2023/03/01 09:00:57;;;;;;;18.42;12.07;;;0.90;1.00;;;;;;5102443;28;20966;-62
2023/03/01 09:03:24;;;;;;;16.15;11.60;;;0.90;99.90;;;;;;5100911;28;20445;-64
2023/03/01 09:05:51;;;;;;;19.95;12.07;;;1.00;99.90;;;;;;5114473;28;20510;-64
2023/03/01 09:08:24;;;;;;;15.02;11.00;;;1.20;1.00;;;;;;5118725;28;20449;-64
2023/03/01 09:10:51;;;;;;;17.60;12.35;;;1.40;1.00;;;;;;5113799;28;20437;-65
2023/03/01 09:13:17;;;;;;;17.90;11.90;;;1.40;1.00;;;;;;5106221;28;20412;-63
2023/03/01 09:15:44;;;;;;;16.08;11.95;;;1.40;99.90;;;;;;5105151;28;20406;-64
2023/03/01 09:18:12;;;;;;;17.15;11.82;;;1.50;99.90;;;;;;5105689;28;20846;-63
2023/03/01 09:20:39;;;;;;;15.63;12.68;;;1.60;99.90;;;;;;5106669;28;20408;-62
2023/03/01 09:23:06;;;;;;;15.00;11.50;;;1.70;99.90;;;;;;5098777;28;20482;-60
2023/03/01 09:25:34;;;;;;;14.80;10.88;;;1.80;99.90;;;;;;5092981;28;20786;-63
2023/03/01 09:28:01;;;;;;;13.93;10.30;;;2.00;1.00;;;;;;5092914;28;20405;-63
2023/03/01 09:30:28;;;;;;;12.48;9.23;;;2.20;81.10;;;;;;5092150;28;20414;-63
2023/03/01 09:32:56;;;;;;;16.10;9.35;;;2.30;99.90;;;;;;5098401;28;20409;-63
2023/03/01 09:35:25;;;;;;;14.35;9.65;;;2.30;1.00;;;;;;5097809;28;20420;-63
2023/03/01 09:37:52;;;;;;;13.35;9.00;;;2.30;1.00;;;;;;5100993;28;20424;-65
2023/03/01 09:40:22;;;;;;;13.00;8.43;;;2.30;99.90;;;;;;5101560;28;20785;-65
2023/03/01 09:42:56;;;;;;;12.68;9.32;;;2.40;99.90;;;;;;5088042;28;20418;-64
2023/03/01 09:45:29;;;;;;;11.23;8.30;;;2.60;99.90;;;;;;5095811;28;20417;-64
2023/03/01 09:47:57;;;;;;;13.32;9.10;;;2.80;70.90;;;;;;5105285;28;20408;-62
2023/03/01 09:50:29;;;;;;;12.20;8.07;;;2.80;40.40;;;;;;5104537;28;20410;-61
2023/03/01 09:53:02;;;;;;;10.18;7.13;;;2.90;1.00;;;;;;5093970;28;20413;-63
2023/03/01 09:55:33;;;;;;;11.50;8.15;;;2.90;1.00;;;;;;5094650;28;20981;-62
2023/03/01 09:58:07;;;;;;;10.80;7.30;;;2.90;1.00;;;;;;5104485;28;20429;-63
2023/03/01 10:00:40;;;;;;;10.30;7.65;;;3.00;1.00;;;;;;5096767;28;20441;-64
2023/03/01 10:03:17;;;;;;;11.57;7.93;;;2.90;1.00;;;;;;5103788;28;20463;-64
2023/03/01 10:06:00;;;;;;;11.70;7.80;;;2.90;1.00;;;;;;5102970;28;20489;-63
2023/03/01 10:08:33;;;;;;;11.98;7.43;;;3.10;1.00;;;;;;5097575;28;21129;-64
2023/03/01 10:10:59;;;;;;;14.27;7.88;;;3.10;1.00;;;;;;5098501;28;20448;-65
2023/03/01 10:13:33;;;;;;;11.30;7.80;;;3.10;1.00;;;;;;5100555;28;20418;-65
2023/03/01 10:16:07;;;;;;;8.80;6.47;;;3.20;1.00;;;;;;5100855;28;20414;-64
2023/03/01 10:18:36;;;;;;;9.85;7.32;;;3.30;99.90;;;;;;5099708;28;20428;-65
2023/03/01 10:21:15;;;;;;;10.45;6.95;;;3.10;99.90;;;;;;5097049;28;20916;-65
2023/03/01 10:23:41;;;;;;;9.00;6.60;;;3.10;99.90;;;;;;5096641;28;21088;-66
2023/03/01 10:26:22;;;;;;;10.68;7.38;;;3.00;99.90;;;;;;5097444;28;20413;-64
2023/03/01 10:29:00;;;;;;;11.93;7.70;;;3.20;99.90;;;;;;5097604;28;20956;-68
2023/03/01 10:31:36;;;;;;;11.30;7.25;;;3.40;99.90;;;;;;5096081;28;20412;-61
2023/03/01 10:34:03;;;;;;;10.90;7.82;;;3.60;99.90;;;;;;5103064;28;20925;-64
2023/03/01 10:36:34;;;;;;;9.30;7.30;;;3.70;99.90;;;;;;5093629;28;20536;-65
2023/03/01 10:39:13;;;;;;;8.55;6.68;;;3.90;99.90;;;;;;5092475;28;20611;-63
2023/03/01 10:42:00;;;;;;;8.75;6.65;;;3.90;99.90;;;;;;5099447;27;20410;-63
2023/03/01 10:44:45;;;;;;;10.07;6.85;;;3.70;99.90;;;;;;5096172;28;20828;-64
2023/03/01 10:47:20;;;;;;;9.60;6.88;;;3.50;99.90;;;;;;5093180;28;20471;-61
2023/03/01 10:49:55;;;;;;;8.95;6.20;;;3.50;99.90;;;;;;5099955;28;20420;-64
2023/03/01 10:52:26;;;;;;;10.68;6.72;;;3.30;99.90;;;;;;5099243;28;20805;-64
2023/03/01 10:54:55;;;;;;;11.10;7.18;;;3.40;99.90;;;;;;5100013;28;20461;-64
2023/03/01 10:57:38;;;;;;;9.27;7.18;;;3.50;99.90;;;;;;5097986;28;20925;-63
2023/03/01 11:00:24;;;;;;;11.55;7.18;;;3.60;99.90;;;;;;5099086;28;20412;-62
2023/03/01 11:03:03;;;;;;;12.23;8.35;;;3.70;99.90;;;;;;5096968;28;20920;-63
2023/03/01 11:05:33;;;;;;;9.63;7.55;;;3.70;99.90;;;;;;5095306;28;20568;-65
2023/03/01 11:08:03;;;;;;;10.23;7.50;;;3.80;99.90;;;;;;5099300;28;21271;-65
2023/03/01 11:10:32;;;;;;;10.07;7.47;;;4.00;99.90;;;;;;5099082;28;20489;-65
2023/03/01 11:13:15;;;;;;;9.13;5.80;;;4.10;99.90;;;;;;5095797;28;20718;-65
2023/03/01 11:15:42;;;;;;;10.20;7.45;;;4.20;99.90;;;;;;5101463;28;20922;-64
2023/03/01 11:18:20;;;;;;;10.98;7.80;;;4.10;99.90;;;;;;5100585;28;20471;-64
2023/03/01 11:20:48;;;;;;;10.15;7.80;;;4.20;99.90;;;;;;5096863;28;20392;-62
2023/03/01 11:23:17;;;;;;;9.45;6.93;;;4.10;99.90;;;;;;5101528;28;20408;-63
2023/03/01 11:25:48;;;;;;;10.85;7.55;;;4.20;99.90;;;;;;5099745;28;20433;-63
2023/03/01 11:28:18;;;;;;;10.02;7.50;;;4.40;99.90;;;;;;5098681;28;20449;-64
2023/03/01 11:30:53;;;;;;;8.20;6.23;;;4.50;99.90;;;;;;5102874;28;20772;-64
2023/03/01 11:33:24;;;;;;;10.10;7.00;;;4.50;99.90;;;;;;5097979;28;20900;-64
2023/03/01 11:36:00;;;;;;;9.52;6.78;;;4.30;99.90;;;;;;5098632;28;20416;-64
2023/03/01 11:38:31;;;;;;;11.27;7.57;;;4.20;99.90;;;;;;5090929;28;20922;-63
2023/03/01 11:41:03;;;;;;;13.48;7.80;;;4.40;99.90;;;;;;5098212;28;20451;-63
2023/03/01 11:43:36;;;;;;;10.32;7.40;;;4.20;99.90;;;;;;5097285;28;20404;-61
2023/03/01 11:46:38;;;;;;;10.25;7.20;;;4.40;99.90;;;;;;5097195;28;20899;-62
2023/03/01 11:49:18;;;;;;;9.85;7.43;;;4.50;99.90;;;;;;5099857;28;20400;-64
2023/03/01 11:51:52;;;;;;;10.57;8.10;;;4.60;99.90;;;;;;5099021;28;20408;-67
2023/03/01 11:54:31;;;;;;;8.80;6.37;;;4.80;99.90;;;;;;5101960;28;20847;-72
2023/03/01 11:57:03;;;;;;;11.52;8.18;;;4.90;99.90;;;;;;5091819;28;20410;-62
2023/03/01 12:00:16;;;;;;;10.52;7.53;;;4.90;99.90;;;;;;5099539;28;20426;-63
2023/03/01 12:03:14;;;;;;;9.90;6.95;;;4.70;99.90;;;;;;5018292;28;20414;-63
2023/03/01 12:06:04;;;;;;;11.98;8.55;;;4.90;99.90;;;;;;5095169;28;20409;-63
2023/03/01 12:08:36;;;;;;;10.80;7.75;;;5.00;99.90;;;;;;5100910;28;20404;-64
2023/03/01 12:11:21;;;;;;;9.48;7.43;;;5.00;99.90;;;;;;5096639;28;20417;-64
2023/03/01 12:14:10;;;;;;;9.10;6.93;;;4.90;99.90;;;;;;5096627;28;20413;-65
2023/03/01 12:17:00;;;;;;;15.73;10.70;;;4.80;99.90;;;;;;5097646;28;20717;-62
2023/03/01 12:19:42;;;;;;;9.82;8.02;;;5.00;99.90;;;;;;5099953;28;20798;-61
2023/03/01 12:22:21;;;;;;;18.02;16.13;;;5.20;99.90;;;;;;5098306;28;20414;-65
2023/03/01 12:25:12;;;;;;;21.10;19.05;;;5.20;99.90;;;;;;5099417;28;20500;-65
2023/03/01 12:27:56;;;;;;;10.87;8.47;;;5.30;99.90;;;;;;5106688;28;21023;-67
2023/03/01 12:30:32;;;;;;;18.02;16.15;;;5.10;99.90;;;;;;5118313;28;20410;-66
2023/03/01 12:33:13;;;;;;;10.25;8.05;;;5.20;99.90;;;;;;5109321;28;20473;-66
2023/03/01 12:36:08;;;;;;;12.88;10.15;;;5.40;99.90;;;;;;5099243;28;20402;-71
2023/03/01 12:38:42;;;;;;;14.25;12.55;;;5.10;99.90;;;;;;5079793;28;20426;-66
2023/03/01 12:41:44;;;;;;;11.90;8.80;;;5.20;99.90;;;;;;5098913;28;20405;-66
2023/03/01 12:44:34;;;;;;;10.88;8.27;;;5.30;99.90;;;;;;5073802;28;21088;-64
2023/03/01 12:47:14;;;;;;;14.40;12.90;;;5.30;99.90;;;;;;5095695;28;20853;-64
2023/03/01 12:49:46;;;;;;;20.02;18.20;;;5.20;99.90;;;;;;5100942;28;20469;-64
2023/03/01 12:52:17;;;;;;;18.70;11.98;;;5.30;99.90;;;;;;5103372;28;20468;-65
2023/03/01 12:54:45;;;;;;;83.35;77.00;;;5.40;99.90;;;;;;5101132;28;20460;-64